Time;durP1;ratioP1;P1;durP2;ratioP2;P2;SDS_P1;SDS_P2;PMS_P1;PMS_P2;Temp;Humidity;BMP_temperature;BMP_pressure;BME280_temperature;BME280_humidity;BME280_pressure;Samples;Min_cycle;Max_cycle;Signal;HPM_P1;HPM_P2
2023/10/21 00:00:33;;;;;;;;;;;8.10;87.80;;;;;;4176147;28;19921;-82
2023/10/21 00:02:36;;;;;;;;;;;8.10;87.90;;;;;;4186551;28;19931;-84
2023/10/21 00:04:57;;;;;;;;;;;8.00;87.80;;;;;;4188095;28;19912;-83
2023/10/21 00:07:18;;;;;;;;;;;8.10;87.80;;;;;;4192738;28;19917;-81
2023/10/21 00:09:20;;;;;;;;;;;8.00;87.60;;;;;;4201090;28;20107;-83
2023/10/21 00:11:40;;;;;;;;;;;8.00;87.60;;;;;;4202176;28;19920;-82
2023/10/21 00:14:01;;;;;;;;;;;8.00;87.50;;;;;;4194599;28;19913;-82
2023/10/21 00:16:21;;;;;;;;;;;8.00;87.40;;;;;;4192588;28;19916;-83
2023/10/21 00:18:42;;;;;;;;;;;8.00;87.30;;;;;;4192255;28;19979;-83
2023/10/21 00:21:03;;;;;;;;;;;7.90;87.30;;;;;;4190544;28;19912;-83
2023/10/21 00:23:26;;;;;;;;;;;7.90;87.40;;;;;;4204957;28;19999;-83
2023/10/21 00:25:47;;;;;;;;;;;7.90;87.30;;;;;;4193688;28;19963;-83
2023/10/21 00:28:07;;;;;;;;;;;7.80;87.60;;;;;;4189273;28;19916;-82
2023/10/21 00:30:28;;;;;;;;;;;7.90;87.50;;;;;;4188763;28;20007;-84
2023/10/21 00:32:28;;;;;;;;;;;7.90;87.50;;;;;;4191243;28;19935;-81
2023/10/21 00:34:29;;;;;;;;;;;7.80;87.50;;;;;;4175745;28;19916;-82
2023/10/21 00:36:30;;;;;;;;;;;7.80;87.50;;;;;;4192290;28;19962;-81
2023/10/21 00:38:31;;;;;;;;;;;7.80;87.50;;;;;;4207238;28;20315;-83
2023/10/21 00:40:31;;;;;;;;;;;7.80;87.30;;;;;;4170381;28;19921;-81
2023/10/21 00:42:53;;;;;;;;;;;7.80;87.30;;;;;;4207360;28;19916;-82
2023/10/21 00:45:17;;;;;;;;;;;7.80;87.40;;;;;;4206596;28;20160;-82
2023/10/21 00:47:37;;;;;;;;;;;7.80;87.30;;;;;;4189384;28;19983;-87
2023/10/21 00:50:00;;;;;;;;;;;7.70;87.30;;;;;;4194048;28;19964;-81
2023/10/21 00:52:21;;;;;;;;;;;7.70;87.50;;;;;;4193337;28;20186;-81
2023/10/21 00:54:44;;;;;;;;;;;7.70;87.80;;;;;;4206517;28;19912;-83
2023/10/21 00:57:05;;;;;;;;;;;7.70;87.70;;;;;;4191146;28;19927;-82
2023/10/21 00:59:25;;;;;;;;;;;7.80;88.30;;;;;;4204282;28;19935;-82
2023/10/21 01:01:46;;;;;;;;;;;7.70;88.00;;;;;;4190581;28;19916;-83
2023/10/21 01:04:08;;;;;;;;;;;7.70;88.00;;;;;;4191234;28;19963;-83
2023/10/21 01:06:29;;;;;;;;;;;7.60;88.20;;;;;;4205696;28;19912;-83
2023/10/21 01:08:49;;;;;;;;;;;7.70;88.20;;;;;;4192112;28;19916;-82
2023/10/21 01:10:59;;;;;;;;;;;7.60;87.90;;;;;;4178819;28;19916;-82
2023/10/21 01:12:59;;;;;;;;;;;7.70;88.00;;;;;;4209138;28;19927;-81
2023/10/21 01:15:00;;;;;;;;;;;7.70;88.00;;;;;;4173812;28;19928;-82
2023/10/21 01:17:01;;;;;;;;;;;7.70;88.20;;;;;;4188159;28;20520;-84
2023/10/21 01:19:07;;;;;;;;;;;7.70;88.40;;;;;;4176030;28;19916;-82
2023/10/21 01:21:08;;;;;;;;;;;7.60;88.10;;;;;;4179918;28;19921;-81
2023/10/21 01:23:29;;;;;;;;;;;7.70;88.00;;;;;;4202481;28;19915;-82
2023/10/21 01:25:29;;;;;;;;;;;7.70;88.00;;;;;;4201286;28;19912;-81
2023/10/21 01:27:56;;;;;;;;;;;7.70;87.90;;;;;;4198429;28;20374;-82
2023/10/21 01:30:16;;;;;;;;;;;7.70;87.80;;;;;;4193153;28;19919;-82
2023/10/21 01:32:25;;;;;;;;;;;7.70;87.70;;;;;;4199229;28;19919;-82
2023/10/21 01:34:45;;;;;;;;;;;7.70;87.60;;;;;;4192758;28;19916;-81
2023/10/21 01:37:06;;;;;;;;;;;7.60;87.80;;;;;;4193372;28;19913;-81
2023/10/21 01:39:26;;;;;;;;;;;7.60;87.80;;;;;;4192826;28;19987;-82
2023/10/21 01:41:47;;;;;;;;;;;7.60;87.90;;;;;;4194667;28;19998;-83
2023/10/21 01:44:07;;;;;;;;;;;7.50;88.00;;;;;;4206019;28;19996;-80
2023/10/21 01:46:28;;;;;;;;;;;7.40;88.80;;;;;;4226623;28;19912;-83
2023/10/21 01:48:50;;;;;;;;;;;7.30;88.90;;;;;;4211275;28;19913;-84
2023/10/21 01:51:13;;;;;;;;;;;7.30;89.30;;;;;;4209904;28;19917;-82
2023/10/21 01:53:34;;;;;;;;;;;7.30;89.30;;;;;;4195785;28;19964;-82
2023/10/21 01:55:58;;;;;;;;;;;7.20;89.40;;;;;;4196275;28;19928;-81
2023/10/21 01:58:19;;;;;;;;;;;7.20;90.00;;;;;;4192172;28;19908;-82
2023/10/21 02:00:40;;;;;;;;;;;7.20;90.20;;;;;;4196554;28;19931;-82
2023/10/21 02:02:40;;;;;;;;;;;7.20;90.20;;;;;;4177213;28;19917;-82
2023/10/21 02:04:42;;;;;;;;;;;7.20;90.10;;;;;;4178977;28;20003;-83
2023/10/21 02:06:43;;;;;;;;;;;7.10;90.40;;;;;;4209430;28;20404;-82
2023/10/21 02:08:43;;;;;;;;;;;7.20;90.20;;;;;;4193868;28;19908;-81
2023/10/21 02:10:44;;;;;;;;;;;7.10;90.40;;;;;;4194720;28;20320;-82
2023/10/21 02:12:44;;;;;;;;;;;7.20;90.30;;;;;;4175184;28;19920;-82
2023/10/21 02:14:45;;;;;;;;;;;7.20;90.20;;;;;;4176969;28;19913;-82
2023/10/21 02:16:46;;;;;;;;;;;7.20;90.40;;;;;;4177738;28;19916;-83
2023/10/21 02:18:46;;;;;;;;;;;7.30;90.10;;;;;;4195463;28;19912;-81
2023/10/21 02:20:47;;;;;;;;;;;7.30;90.10;;;;;;4178555;28;20023;-82
2023/10/21 02:22:47;;;;;;;;;;;7.40;90.10;;;;;;4177998;28;19963;-82
2023/10/21 02:24:48;;;;;;;;;;;7.40;90.10;;;;;;4215744;28;19920;-83
2023/10/21 02:26:49;;;;;;;;;;;7.40;90.10;;;;;;4201575;28;19913;-82
2023/10/21 02:28:50;;;;;;;;;;;7.40;90.00;;;;;;4182675;28;19912;-83
2023/10/21 02:30:51;;;;;;;;;;;7.50;90.00;;;;;;4202300;28;19965;-84
2023/10/21 02:32:52;;;;;;;;;;;7.50;90.00;;;;;;4182357;28;19913;-83
2023/10/21 02:34:53;;;;;;;;;;;7.60;89.80;;;;;;4182157;28;20032;-81
2023/10/21 02:36:56;;;;;;;;;;;7.50;89.80;;;;;;4183582;28;19920;-82
2023/10/21 02:38:56;;;;;;;;;;;7.50;89.60;;;;;;4186817;28;19916;-84
2023/10/21 02:40:57;;;;;;;;;;;7.50;89.80;;;;;;4180259;28;19963;-83
2023/10/21 02:42:57;;;;;;;;;;;7.50;89.70;;;;;;4204619;28;19919;-82
2023/10/21 02:44:59;;;;;;;;;;;7.50;90.20;;;;;;4205894;28;19916;-82
2023/10/21 02:47:00;;;;;;;;;;;7.60;89.90;;;;;;4198920;28;19951;-82
2023/10/21 02:49:01;;;;;;;;;;;7.60;89.60;;;;;;4182891;28;20325;-84
2023/10/21 02:51:15;;;;;;;;;;;7.70;89.60;;;;;;4182610;28;19916;-85
2023/10/21 02:53:23;;;;;;;;;;;7.60;89.40;;;;;;4200731;28;19950;-82
2023/10/21 02:55:44;;;;;;;;;;;7.60;89.70;;;;;;4196527;28;20362;-82
2023/10/21 02:57:48;;;;;;;;;;;7.60;89.30;;;;;;4199135;28;19905;-82
2023/10/21 03:00:15;;;;;;;;;;;7.60;89.40;;;;;;4198207;28;19917;-83
2023/10/21 03:02:36;;;;;;;;;;;7.70;89.30;;;;;;4193857;28;19924;-81
2023/10/21 03:04:56;;;;;;;;;;;7.60;89.40;;;;;;4193601;28;19971;-81
2023/10/21 03:07:16;;;;;;;;;;;7.70;89.30;;;;;;4196157;28;19916;-85
2023/10/21 03:09:36;;;;;;;;;;;7.60;89.20;;;;;;4190498;28;19917;-82
2023/10/21 03:11:57;;;;;;;;;;;7.70;89.20;;;;;;4194337;28;19917;-83
2023/10/21 03:14:18;;;;;;;;;;;7.80;89.30;;;;;;4192981;28;19914;-82
2023/10/21 03:16:38;;;;;;;;;;;7.70;89.20;;;;;;4205599;28;19947;-82
2023/10/21 03:18:59;;;;;;;;;;;7.60;89.10;;;;;;4192310;28;19951;-82
2023/10/21 03:21:19;;;;;;;;;;;7.70;89.20;;;;;;4193095;28;19955;-82
2023/10/21 03:23:40;;;;;;;;;;;7.60;89.00;;;;;;4206042;28;19916;-82
2023/10/21 03:26:02;;;;;;;;;;;7.60;89.10;;;;;;4194241;28;19909;-81
2023/10/21 03:28:23;;;;;;;;;;;7.60;89.00;;;;;;4198556;28;19920;-80
2023/10/21 03:30:43;;;;;;;;;;;7.60;89.00;;;;;;4222175;28;19948;-84
2023/10/21 03:32:44;;;;;;;;;;;7.70;89.10;;;;;;4201797;28;19913;-83
2023/10/21 03:34:45;;;;;;;;;;;7.70;89.20;;;;;;4203787;28;20359;-82
2023/10/21 03:36:46;;;;;;;;;;;7.70;89.20;;;;;;4185034;28;20011;-83
2023/10/21 03:38:46;;;;;;;;;;;7.70;89.00;;;;;;4182692;28;19913;-82
2023/10/21 03:41:03;;;;;;;;;;;7.70;88.90;;;;;;4197902;28;20875;-84
2023/10/21 03:43:04;;;;;;;;;;;7.70;89.20;;;;;;4187993;28;19938;-82
2023/10/21 03:45:09;;;;;;;;;;;7.70;89.30;;;;;;4181222;28;19928;-81
2023/10/21 03:47:29;;;;;;;;;;;7.60;89.10;;;;;;4197818;28;20448;-83
2023/10/21 03:49:50;;;;;;;;;;;7.60;89.50;;;;;;4212285;28;19912;-83
2023/10/21 03:52:10;;;;;;;;;;;7.70;89.70;;;;;;4209638;28;19951;-83
2023/10/21 03:54:31;;;;;;;;;;;7.60;89.80;;;;;;4193554;28;19919;-82
2023/10/21 03:56:51;;;;;;;;;;;7.60;89.90;;;;;;4191882;28;20294;-81
2023/10/21 03:59:12;;;;;;;;;;;7.60;90.00;;;;;;4194712;28;19904;-82
2023/10/21 04:01:32;;;;;;;;;;;7.60;90.00;;;;;;4206558;28;19912;-81
2023/10/21 04:03:53;;;;;;;;;;;7.70;90.00;;;;;;4205679;28;19917;-82
2023/10/21 04:06:15;;;;;;;;;;;7.60;90.00;;;;;;4193647;28;19905;-82
2023/10/21 04:08:36;;;;;;;;;;;7.70;90.00;;;;;;4189930;28;19984;-82
2023/10/21 04:10:57;;;;;;;;;;;7.70;89.80;;;;;;4192562;28;19923;-82
2023/10/21 04:13:17;;;;;;;;;;;7.90;89.80;;;;;;4191206;28;19920;-81
2023/10/21 04:15:38;;;;;;;;;;;7.80;89.60;;;;;;4208529;28;19951;-82
2023/10/21 04:17:39;;;;;;;;;;;7.80;89.60;;;;;;4194364;28;19905;-82
2023/10/21 04:19:40;;;;;;;;;;;7.90;89.60;;;;;;4195113;28;19921;-82
2023/10/21 04:21:40;;;;;;;;;;;7.80;89.40;;;;;;4175336;28;20054;-83
2023/10/21 04:23:43;;;;;;;;;;;7.90;89.50;;;;;;4188281;28;21436;-84
2023/10/21 04:25:44;;;;;;;;;;;7.90;89.30;;;;;;4192295;28;20047;-83
2023/10/21 04:27:44;;;;;;;;;;;7.90;89.40;;;;;;4193233;28;20566;-82
2023/10/21 04:29:45;;;;;;;;;;;7.90;89.20;;;;;;4193831;28;20092;-82
2023/10/21 04:31:46;;;;;;;;;;;8.00;89.30;;;;;;4190665;28;20662;-84
2023/10/21 04:33:47;;;;;;;;;;;7.90;89.20;;;;;;4190085;28;19963;-82
2023/10/21 04:35:48;;;;;;;;;;;8.00;89.10;;;;;;4208150;28;19913;-83
2023/10/21 04:38:09;;;;;;;;;;;8.00;89.20;;;;;;4190404;28;19920;-82
2023/10/21 04:40:11;;;;;;;;;;;7.90;89.20;;;;;;4176584;28;19925;-84
2023/10/21 04:42:32;;;;;;;;;;;7.90;89.20;;;;;;4190296;28;19925;-82
2023/10/21 04:44:53;;;;;;;;;;;7.90;89.60;;;;;;4188884;28;19927;-82
2023/10/21 04:47:15;;;;;;;;;;;8.10;89.40;;;;;;4194613;28;19920;-81
2023/10/21 04:49:36;;;;;;;;;;;8.00;89.30;;;;;;4190689;28;20058;-82
2023/10/21 04:51:57;;;;;;;;;;;8.00;89.50;;;;;;4189492;28;19928;-84
2023/10/21 04:54:17;;;;;;;;;;;8.00;89.50;;;;;;4202177;28;19916;-83
2023/10/21 04:56:38;;;;;;;;;;;8.00;89.50;;;;;;4204089;28;19965;-83
2023/10/21 04:58:59;;;;;;;;;;;8.00;89.60;;;;;;4203631;28;19912;-83
2023/10/21 05:01:20;;;;;;;;;;;8.10;89.60;;;;;;4191957;28;19922;-81
2023/10/21 05:03:40;;;;;;;;;;;8.10;89.40;;;;;;4190088;28;19958;-82
2023/10/21 05:05:41;;;;;;;;;;;8.00;89.50;;;;;;4192940;28;20416;-82
2023/10/21 05:07:42;;;;;;;;;;;8.10;89.60;;;;;;4179722;28;19917;-83
2023/10/21 05:09:46;;;;;;;;;;;8.10;89.60;;;;;;4179440;28;19917;-84
2023/10/21 05:11:48;;;;;;;;;;;8.00;89.50;;;;;;4178082;28;20249;-83
2023/10/21 05:14:08;;;;;;;;;;;8.10;89.80;;;;;;4190481;28;19967;-83
2023/10/21 05:16:20;;;;;;;;;;;8.00;89.70;;;;;;4190802;28;19973;-81
2023/10/21 05:18:41;;;;;;;;;;;8.00;89.90;;;;;;4189004;28;19916;-82
2023/10/21 05:21:06;;;;;;;;;;;8.00;90.00;;;;;;4193092;28;19917;-83
2023/10/21 05:23:26;;;;;;;;;;;8.10;90.00;;;;;;4207240;28;19911;-82
2023/10/21 05:25:47;;;;;;;;;;;8.10;90.00;;;;;;4194158;28;19916;-83
2023/10/21 05:28:07;;;;;;;;;;;8.20;89.70;;;;;;4193614;28;19916;-82
2023/10/21 05:30:17;;;;;;;;;;;8.20;90.00;;;;;;4177960;28;20000;-84
2023/10/21 05:32:38;;;;;;;;;;;8.20;89.90;;;;;;4192762;28;19921;-83
2023/10/21 05:34:59;;;;;;;;;;;8.20;89.70;;;;;;4194485;28;20242;-82
2023/10/21 05:37:20;;;;;;;;;;;8.30;89.70;;;;;;4208643;28;19904;-83
2023/10/21 05:39:40;;;;;;;;;;;8.30;89.70;;;;;;4201799;28;19994;-83
2023/10/21 05:42:01;;;;;;;;;;;8.30;89.70;;;;;;4205483;28;19947;-83
2023/10/21 05:44:21;;;;;;;;;;;8.40;89.60;;;;;;4200653;28;19915;-84
2023/10/21 05:46:42;;;;;;;;;;;8.30;89.70;;;;;;4202811;28;19909;-83
2023/10/21 05:48:43;;;;;;;;;;;8.30;89.60;;;;;;4185012;28;20009;-83
2023/10/21 05:50:43;;;;;;;;;;;8.40;89.60;;;;;;4188718;28;20342;-83
2023/10/21 05:52:44;;;;;;;;;;;8.40;89.60;;;;;;4199448;28;20382;-84
2023/10/21 05:54:44;;;;;;;;;;;8.40;89.60;;;;;;4187374;28;19951;-82
2023/10/21 05:56:45;;;;;;;;;;;8.40;89.60;;;;;;4197581;28;19917;-83
2023/10/21 05:59:06;;;;;;;;;;;8.40;89.50;;;;;;4199988;28;19917;-82
2023/10/21 06:01:12;;;;;;;;;;;8.30;90.00;;;;;;4200114;28;19913;-83
2023/10/21 06:03:33;;;;;;;;;;;8.30;90.00;;;;;;4198719;28;19924;-84
2023/10/21 06:05:54;;;;;;;;;;;8.50;89.60;;;;;;4199973;28;19951;-83
2023/10/21 06:08:14;;;;;;;;;;;8.30;89.70;;;;;;4199906;28;19923;-83
2023/10/21 06:10:35;;;;;;;;;;;8.40;89.80;;;;;;4213802;28;20002;-85
2023/10/21 06:12:56;;;;;;;;;;;8.50;89.90;;;;;;4196388;28;19913;-83
2023/10/21 06:15:17;;;;;;;;;;;8.40;89.60;;;;;;4195925;28;19931;-84
2023/10/21 06:17:37;;;;;;;;;;;8.50;89.60;;;;;;4208433;28;19966;-84
2023/10/21 06:19:58;;;;;;;;;;;8.60;89.50;;;;;;4190300;28;19923;-84
2023/10/21 06:22:19;;;;;;;;;;;8.50;89.50;;;;;;4204196;28;19908;-83
2023/10/21 06:24:39;;;;;;;;;;;8.50;89.60;;;;;;4205971;28;19916;-84
2023/10/21 06:26:40;;;;;;;;;;;8.50;89.50;;;;;;4191297;28;20467;-84
2023/10/21 06:28:41;;;;;;;;;;;8.50;89.60;;;;;;4190618;28;19916;-83
2023/10/21 06:30:41;;;;;;;;;;;8.50;89.50;;;;;;4187875;28;20011;-84
2023/10/21 06:32:42;;;;;;;;;;;8.50;89.30;;;;;;4202999;28;20246;-83
2023/10/21 06:34:42;;;;;;;;;;;8.60;89.30;;;;;;4175997;28;19916;-83
2023/10/21 06:37:03;;;;;;;;;;;8.50;89.10;;;;;;4190779;28;20442;-83
2023/10/21 06:39:23;;;;;;;;;;;8.60;89.30;;;;;;4187850;28;19927;-85
2023/10/21 06:41:44;;;;;;;;;;;8.60;89.20;;;;;;4199053;28;19915;-83
2023/10/21 06:44:05;;;;;;;;;;;8.60;89.30;;;;;;4205505;28;19926;-83
2023/10/21 06:46:25;;;;;;;;;;;8.60;89.30;;;;;;4190221;28;20549;-84
2023/10/21 06:48:46;;;;;;;;;;;8.60;89.10;;;;;;4202891;28;19923;-84
2023/10/21 06:51:06;;;;;;;;;;;8.60;88.90;;;;;;4192360;28;19940;-84
2023/10/21 06:53:27;;;;;;;;;;;8.70;88.70;;;;;;4190424;28;19954;-82
2023/10/21 06:55:49;;;;;;;;;;;8.70;88.90;;;;;;4189984;28;19923;-83
2023/10/21 06:58:09;;;;;;;;;;;8.70;88.80;;;;;;4191819;28;19971;-83
2023/10/21 07:00:30;;;;;;;;;;;8.70;88.80;;;;;;4183994;28;20353;-83
2023/10/21 07:02:51;;;;;;;;;;;8.70;88.90;;;;;;4184649;28;19920;-83
2023/10/21 07:05:06;;;;;;;;;;;8.70;88.80;;;;;;4188252;28;19913;-83
2023/10/21 07:07:27;;;;;;;;;;;8.70;88.90;;;;;;4202397;28;19922;-84
2023/10/21 07:09:47;;;;;;;;;;;8.80;88.80;;;;;;4192602;28;20118;-84
2023/10/21 07:12:08;;;;;;;;;;;8.70;88.70;;;;;;4188707;28;20002;-84
2023/10/21 07:14:29;;;;;;;;;;;8.70;88.70;;;;;;4205207;28;21156;-83
2023/10/21 07:16:50;;;;;;;;;;;8.80;88.70;;;;;;4214259;28;19912;-84
2023/10/21 07:19:10;;;;;;;;;;;8.70;88.80;;;;;;4214806;28;19913;-84
2023/10/21 07:21:31;;;;;;;;;;;8.60;88.90;;;;;;4206258;28;20367;-83
2023/10/21 07:23:51;;;;;;;;;;;8.80;89.10;;;;;;4187015;28;19912;-83
2023/10/21 07:26:12;;;;;;;;;;;8.60;89.20;;;;;;4202434;28;19936;-83
2023/10/21 07:28:33;;;;;;;;;;;8.80;89.40;;;;;;4191446;28;19920;-84
2023/10/21 07:30:54;;;;;;;;;;;8.80;89.50;;;;;;4189394;28;19916;-85
2023/10/21 07:32:55;;;;;;;;;;;8.40;89.60;;;;;;4204913;28;19908;-84
2023/10/21 07:34:55;;;;;;;;;;;8.50;90.30;;;;;;4181386;28;19919;-85
2023/10/21 07:36:57;;;;;;;;;;;8.60;90.10;;;;;;4190186;28;19908;-84
2023/10/21 07:39:04;;;;;;;;;;;8.60;90.20;;;;;;4205328;28;20010;-82
2023/10/21 07:41:25;;;;;;;;;;;8.60;90.00;;;;;;4185876;28;19957;-83
2023/10/21 07:43:25;;;;;;;;;;;8.70;90.20;;;;;;4190228;28;20352;-82
2023/10/21 07:45:26;;;;;;;;;;;8.70;90.00;;;;;;4174634;28;19939;-82
2023/10/21 07:47:27;;;;;;;;;;;8.70;90.00;;;;;;4193327;28;20132;-84
2023/10/21 07:49:50;;;;;;;;;;;8.70;90.00;;;;;;4187371;28;19919;-84
2023/10/21 07:51:51;;;;;;;;;;;8.70;90.10;;;;;;4189647;28;19917;-83
2023/10/21 07:54:12;;;;;;;;;;;8.80;90.10;;;;;;4191760;28;19909;-84
2023/10/21 07:56:32;;;;;;;;;;;8.90;90.20;;;;;;4191812;28;19979;-83
2023/10/21 07:58:53;;;;;;;;;;;8.90;90.20;;;;;;4192000;28;19916;-83
2023/10/21 08:01:14;;;;;;;;;;;8.90;90.10;;;;;;4191776;28;20003;-84
2023/10/21 08:03:34;;;;;;;;;;;9.00;90.20;;;;;;4192794;28;19920;-84
2023/10/21 08:05:55;;;;;;;;;;;9.00;90.00;;;;;;4187150;28;19916;-85
2023/10/21 08:08:05;;;;;;;;;;;9.00;90.00;;;;;;4169475;28;20004;-84
2023/10/21 08:10:26;;;;;;;;;;;9.00;90.10;;;;;;4189304;28;19916;-84
2023/10/21 08:12:46;;;;;;;;;;;9.00;90.00;;;;;;4198451;28;19913;-85
2023/10/21 08:15:07;;;;;;;;;;;9.10;90.00;;;;;;4204011;28;19961;-85
2023/10/21 08:17:28;;;;;;;;;;;9.10;90.00;;;;;;4166840;28;19916;-85
2023/10/21 08:19:48;;;;;;;;;;;9.10;90.00;;;;;;4189806;28;19923;-83
2023/10/21 08:22:10;;;;;;;;;;;9.20;90.00;;;;;;4189368;28;20302;-84
2023/10/21 08:24:46;;;;;;;;;;;9.30;90.00;;;;;;4182085;28;19995;-84
2023/10/21 08:27:07;;;;;;;;;;;9.20;89.90;;;;;;4186583;28;19921;-83
2023/10/21 08:29:27;;;;;;;;;;;9.20;89.90;;;;;;4187233;28;19923;-84
2023/10/21 08:34:49;;;;;;;;;;;9.30;89.70;;;;;;4152628;28;19924;-83
2023/10/21 08:40:13;;;;;;;;;;;9.20;89.70;;;;;;4150466;28;20301;-83
2023/10/21 08:43:03;;;;;;;;;;;9.30;89.80;;;;;;4151276;28;20525;-84
2023/10/21 08:48:19;;;;;;;;;;;9.30;89.50;;;;;;4171378;23;20509;-84
2023/10/21 08:50:25;;;;;;;;;;;9.30;89.30;;;;;;4158177;28;19928;-84
2023/10/21 08:57:59;;;;;;;;;;;9.30;89.20;;;;;;4403609;22;19924;-85
2023/10/21 09:00:20;;;;;;;;;;;9.30;89.40;;;;;;4141935;28;19967;-84
2023/10/21 09:05:19;;;;;;;;;;;9.40;89.70;;;;;;4140520;28;19917;-85
2023/10/21 09:07:47;;;;;;;;;;;9.30;89.50;;;;;;4125091;28;21715;-83
2023/10/21 09:10:08;;;;;;;;;;;9.20;89.90;;;;;;4142283;28;19937;-83
2023/10/21 09:12:29;;;;;;;;;;;9.30;89.90;;;;;;4138968;28;19922;-84
2023/10/21 09:14:55;;;;;;;;;;;9.40;89.80;;;;;;4139698;28;20353;-83
2023/10/21 09:17:35;;;;;;;;;;;9.40;89.80;;;;;;4144327;28;19928;-84
2023/10/21 09:19:55;;;;;;;;;;;9.30;89.80;;;;;;4140778;28;19925;-84
2023/10/21 09:22:27;;;;;;;;;;;9.40;90.00;;;;;;4130138;28;20025;-86
2023/10/21 09:24:48;;;;;;;;;;;9.30;89.60;;;;;;4137116;28;21293;-83
2023/10/21 09:27:13;;;;;;;;;;;9.30;90.20;;;;;;4139423;28;19909;-83
2023/10/21 09:29:36;;;;;;;;;;;9.30;90.00;;;;;;4140955;28;19939;-84
2023/10/21 09:31:57;;;;;;;;;;;9.30;90.10;;;;;;4187424;28;20000;-84
2023/10/21 09:34:32;;;;;;;;;;;9.40;90.00;;;;;;4193147;28;19916;-83
2023/10/21 09:36:54;;;;;;;;;;;9.40;90.00;;;;;;4205708;28;19915;-84
2023/10/21 09:39:14;;;;;;;;;;;9.40;90.00;;;;;;4191637;28;19913;-84
2023/10/21 09:41:17;;;;;;;;;;;9.50;90.00;;;;;;4193874;28;20375;-84
2023/10/21 09:43:51;;;;;;;;;;;9.50;90.00;;;;;;4172773;28;19974;-84
2023/10/21 09:45:52;;;;;;;;;;;9.50;89.90;;;;;;4141462;28;19918;-83
2023/10/21 09:47:55;;;;;;;;;;;9.40;89.80;;;;;;4107498;28;19914;-87
2023/10/21 09:50:26;;;;;;;;;;;9.50;89.70;;;;;;4141314;28;20382;-84
2023/10/21 09:52:42;;;;;;;;;;;9.40;89.70;;;;;;4107942;28;20300;-83
2023/10/21 09:54:44;;;;;;;;;;;9.50;89.90;;;;;;4126303;28;20008;-83
2023/10/21 09:59:44;;;;;;;;;;;9.40;89.90;;;;;;4148116;28;19937;-83
2023/10/21 10:02:03;;;;;;;;;;;9.50;89.90;;;;;;4160227;28;19933;-84
2023/10/21 10:17:47;;;;;;;;;;;9.40;90.20;;;;;;4566586;22;19929;-84
2023/10/21 10:20:18;;;;;;;;;;;9.50;90.20;;;;;;4171021;28;19935;-84
2023/10/21 10:22:42;;;;;;;;;;;9.50;90.20;;;;;;4193325;28;19943;-83
2023/10/21 10:25:10;;;;;;;;;;;9.50;90.00;;;;;;4180821;28;20088;-84
2023/10/21 10:27:40;;;;;;;;;;;9.50;90.10;;;;;;4175634;28;19975;-84
2023/10/21 10:30:00;;;;;;;;;;;9.50;90.10;;;;;;4163890;28;19951;-84
2023/10/21 10:32:16;;;;;;;;;;;9.60;90.10;;;;;;4143897;28;20758;-83
2023/10/21 10:34:19;;;;;;;;;;;9.60;90.00;;;;;;4176568;28;19917;-82
2023/10/21 10:36:28;;;;;;;;;;;9.50;89.90;;;;;;4143379;28;20016;-83
2023/10/21 10:38:32;;;;;;;;;;;9.50;89.90;;;;;;4143856;28;19914;-83
2023/10/21 10:40:34;;;;;;;;;;;9.40;90.00;;;;;;4160781;28;19917;-84
2023/10/21 10:42:36;;;;;;;;;;;9.70;90.20;;;;;;4176263;28;19917;-84
2023/10/21 10:44:42;;;;;;;;;;;9.50;90.00;;;;;;4162148;28;19943;-84
2023/10/21 10:46:42;;;;;;;;;;;9.50;90.00;;;;;;4163063;28;19949;-85
2023/10/21 10:51:43;;;;;;;;;;;9.70;90.00;;;;;;4177068;28;19971;-84
2023/10/21 10:53:46;;;;;;;;;;;9.60;89.90;;;;;;4140616;28;20283;-85
2023/10/21 10:55:48;;;;;;;;;;;9.70;90.00;;;;;;4159279;28;20418;-84
2023/10/21 10:57:51;;;;;;;;;;;9.80;90.00;;;;;;4172486;28;19920;-84
2023/10/21 11:00:20;;;;;;;;;;;9.90;89.90;;;;;;4173679;28;19925;-85
2023/10/21 11:02:24;;;;;;;;;;;9.70;90.00;;;;;;4163774;28;19948;-84
2023/10/21 11:04:48;;;;;;;;;;;9.70;89.80;;;;;;4176431;28;19956;-83
2023/10/21 11:07:10;;;;;;;;;;;9.80;90.00;;;;;;4180454;28;19955;-85
2023/10/21 11:09:32;;;;;;;;;;;9.80;89.90;;;;;;4163164;28;19921;-85
2023/10/21 11:11:54;;;;;;;;;;;9.80;89.80;;;;;;4165914;28;19913;-85
2023/10/21 11:14:16;;;;;;;;;;;9.80;89.80;;;;;;4165086;28;19975;-85
2023/10/21 11:16:36;;;;;;;;;;;9.80;90.00;;;;;;4163072;28;19997;-84
2023/10/21 11:18:57;;;;;;;;;;;9.90;89.70;;;;;;4163561;28;20015;-85
2023/10/21 11:20:58;;;;;;;;;;;10.00;89.70;;;;;;4160794;28;19913;-85
2023/10/21 11:23:08;;;;;;;;;;;9.90;89.60;;;;;;4175068;28;19913;-85
2023/10/21 11:25:09;;;;;;;;;;;9.90;89.50;;;;;;4173363;28;19913;-86
2023/10/21 11:27:11;;;;;;;;;;;9.90;89.60;;;;;;4158518;28;20498;-85
2023/10/21 11:29:32;;;;;;;;;;;10.00;89.40;;;;;;4175165;28;20015;-85
2023/10/21 11:31:53;;;;;;;;;;;9.90;89.50;;;;;;4175276;28;19913;-84
2023/10/21 11:34:15;;;;;;;;;;;10.00;89.60;;;;;;4168019;28;20021;-86
2023/10/21 11:36:37;;;;;;;;;;;10.00;89.40;;;;;;4173289;28;19924;-84
2023/10/21 11:38:57;;;;;;;;;;;10.00;89.30;;;;;;4171906;28;19932;-85
2023/10/21 11:41:18;;;;;;;;;;;10.00;89.30;;;;;;4175986;28;19921;-85
2023/10/21 11:43:41;;;;;;;;;;;10.10;89.60;;;;;;4161909;28;19913;-86
2023/10/21 11:46:05;;;;;;;;;;;10.10;89.30;;;;;;4156404;28;19921;-85
2023/10/21 11:48:26;;;;;;;;;;;10.10;89.50;;;;;;4174876;28;19913;-85
2023/10/21 11:50:47;;;;;;;;;;;10.10;89.30;;;;;;4162514;28;19964;-86
2023/10/21 11:53:08;;;;;;;;;;;10.10;89.30;;;;;;4154312;28;19924;-85
2023/10/21 11:55:21;;;;;;;;;;;10.10;89.40;;;;;;4172633;28;19905;-86
2023/10/21 12:07:30;;;;;;;;;;;10.10;89.40;;;;;;4117994;28;19920;-84
2023/10/21 12:39:37;;;;;;;;;;;10.40;89.30;;;;;;4184619;28;20037;-86
2023/10/21 12:41:58;;;;;;;;;;;10.40;89.20;;;;;;4163871;28;19924;-85
2023/10/21 12:44:26;;;;;;;;;;;10.40;89.10;;;;;;4164772;28;19917;-85
2023/10/21 12:46:47;;;;;;;;;;;10.50;88.90;;;;;;4178074;28;19919;-84
2023/10/21 12:49:13;;;;;;;;;;;10.50;88.90;;;;;;4160789;28;19963;-86
2023/10/21 12:51:34;;;;;;;;;;;10.50;88.80;;;;;;4163219;28;19928;-85
2023/10/21 12:53:55;;;;;;;;;;;10.50;88.80;;;;;;4174463;28;19917;-86
2023/10/21 12:56:15;;;;;;;;;;;10.50;88.60;;;;;;4177003;28;19974;-84
2023/10/21 12:58:36;;;;;;;;;;;10.50;88.50;;;;;;4177847;28;20001;-85
2023/10/21 13:01:05;;;;;;;;;;;10.50;88.20;;;;;;4173204;28;19927;-86
2023/10/21 13:03:26;;;;;;;;;;;10.50;88.40;;;;;;4174814;28;20014;-86
2023/10/21 13:05:47;;;;;;;;;;;10.50;88.20;;;;;;4155132;28;19955;-86
2023/10/21 13:08:09;;;;;;;;;;;10.70;88.10;;;;;;4173138;28;19917;-85
2023/10/21 13:10:31;;;;;;;;;;;10.60;88.10;;;;;;4175026;28;19915;-85
2023/10/21 13:12:51;;;;;;;;;;;10.50;88.10;;;;;;4171091;28;19963;-87
2023/10/21 13:15:12;;;;;;;;;;;10.50;87.80;;;;;;4179183;28;19921;-84
2023/10/21 13:17:33;;;;;;;;;;;10.50;87.90;;;;;;4173617;28;19935;-86
2023/10/21 13:19:53;;;;;;;;;;;10.50;87.90;;;;;;4173146;28;19921;-85
2023/10/21 13:21:55;;;;;;;;;;;10.50;87.90;;;;;;4157742;28;20434;-84
2023/10/21 13:23:55;;;;;;;;;;;10.50;87.80;;;;;;4158118;28;19927;-86
2023/10/21 13:25:56;;;;;;;;;;;10.50;87.70;;;;;;4172833;28;19912;-86
2023/10/21 13:27:56;;;;;;;;;;;10.50;87.80;;;;;;4171159;28;19917;-86
2023/10/21 13:29:57;;;;;;;;;;;10.50;87.80;;;;;;4160917;28;20357;-85
2023/10/21 13:31:58;;;;;;;;;;;10.50;87.80;;;;;;4179274;28;20118;-85
2023/10/21 13:34:02;;;;;;;;;;;10.50;87.50;;;;;;4159901;28;19916;-86
2023/10/21 13:36:05;;;;;;;;;;;10.40;87.70;;;;;;4156104;28;19924;-85
2023/10/21 13:38:26;;;;;;;;;;;10.50;87.80;;;;;;4159302;28;19923;-85
2023/10/21 13:40:27;;;;;;;;;;;10.40;87.70;;;;;;4183561;28;19956;-85
2023/10/21 13:42:48;;;;;;;;;;;10.40;87.80;;;;;;4174441;28;20142;-85
2023/10/21 13:45:19;;;;;;;;;;;10.40;87.80;;;;;;4174624;28;19928;-86
2023/10/21 13:47:40;;;;;;;;;;;10.40;87.80;;;;;;4172490;28;19921;-85
2023/10/21 13:50:00;;;;;;;;;;;10.40;87.70;;;;;;4173308;28;19971;-85
2023/10/21 13:52:21;;;;;;;;;;;10.50;87.90;;;;;;4174273;28;19913;-84
2023/10/21 13:54:43;;;;;;;;;;;10.40;87.90;;;;;;4162114;28;19913;-84
2023/10/21 13:57:04;;;;;;;;;;;10.40;87.80;;;;;;4173216;28;19912;-84
2023/10/21 13:59:25;;;;;;;;;;;10.40;87.90;;;;;;4162520;28;20010;-85
2023/10/21 14:01:45;;;;;;;;;;;10.50;88.00;;;;;;4160670;28;19917;-84
2023/10/21 14:04:06;;;;;;;;;;;10.40;88.00;;;;;;4176160;28;19966;-83
2023/10/21 14:06:26;;;;;;;;;;;10.40;87.80;;;;;;4187129;28;19915;-83
2023/10/21 14:08:27;;;;;;;;;;;10.50;88.00;;;;;;4162505;28;19970;-85
2023/10/21 14:10:28;;;;;;;;;;;10.40;88.00;;;;;;4176385;28;20398;-85
2023/10/21 14:12:30;;;;;;;;;;;10.50;88.80;;;;;;4172805;28;19917;-85
2023/10/21 14:14:32;;;;;;;;;;;10.40;88.00;;;;;;4156171;28;19921;-84
2023/10/21 14:16:34;;;;;;;;;;;10.40;87.80;;;;;;4158371;28;19955;-83
2023/10/21 14:18:56;;;;;;;;;;;10.40;87.80;;;;;;4172457;28;20080;-84
2023/10/21 14:21:17;;;;;;;;;;;10.50;87.90;;;;;;4173196;28;19975;-84
2023/10/21 14:23:19;;;;;;;;;;;10.50;87.80;;;;;;4173829;28;19916;-84
2023/10/21 14:25:20;;;;;;;;;;;10.40;87.80;;;;;;4157946;28;19978;-84
2023/10/21 14:27:41;;;;;;;;;;;10.40;88.10;;;;;;4162276;28;19913;-85
2023/10/21 14:30:08;;;;;;;;;;;10.40;88.10;;;;;;4175285;28;19940;-85